Flight Track Log - Related Links

Times and Time Zones

All times are in EDT time to prevent confusion due to time zone crossing. See the ASQ5738 flight status page for this flight to view local times or setup timezone preferences in your user account.

Time Position Orientation Groundspeed Altitude Reporting Facility
EDT Latitude Longitude Course Direction KTS MPH feet Rate Location/Type
Fri 10:14:27 AM 42.7236 -73.8081 197° South 168 193 1,400  Level Boston Center
Fri 10:14:57 AM 42.6983 -73.8186 197° South 185 213 2,500 2,585 Climbing Boston Center
Fri 10:15:32 AM 42.7042 -73.8583 281° West 224 258 4,200 3,148 Climbing Boston Center
Fri 10:15:58 AM 42.7206 -73.8814 314° West 226 260 5,700 3,400 Climbing Boston Center
Fri 10:16:32 AM 42.7494 -73.9075 326° Northwest 218 251 7,600 2,809 Climbing Boston Center
Fri 10:17:32 AM 42.7986 -73.9625 321° Northwest 246 283 10,100 2,250 Climbing Boston Center
Fri 10:18:32 AM 42.8203 -74.0564 287° West 246 283 12,100 1,700 Climbing Boston Center
Fri 10:19:32 AM 42.8208 -74.1611 270° West 269 310 13,500 1,650 Climbing Boston Center
Fri 10:20:32 AM 42.7347 -74.1983 198° South 244 281 15,400 1,450 Climbing Boston Center
Fri 10:21:32 AM 42.6456 -74.1733 168° South 266 306 16,400 1,050 Climbing Boston Center
Fri 10:22:32 AM 42.5442 -74.1367 165° South 348 400 17,500 750 Climbing Boston Center
Fri 10:23:32 AM 42.4342 -74.1025 167° South 392 451 17,900 750 Climbing Boston Center
Fri 10:24:32 AM 42.3219 -74.0658 166° South 411 473 19,000 955 Climbing Boston Center
Fri 10:25:44 AM 42.2078 -74.0378 170° South 411 473 20,000 955 Climbing Boston Center
Fri 10:26:44 AM 42.0661 -74.0453 182° South 422 486 21,100 950 Climbing Boston Center
Fri 10:27:44 AM 41.9450 -74.0533 183° South 432 497 21,900 800 Climbing Boston Center
Fri 10:28:44 AM 41.8256 -74.1033 197° South 432 497 22,700 728 Climbing Boston Center
Fri 10:31:10 AM 41.5644 -74.2422 202° Southwest 450 518 24,400 696 Climbing New York Center
Fri 10:32:11 AM 41.4481 -74.3056 202° Southwest 450 518 25,100 694 Climbing New York Center
Fri 10:33:11 AM 41.3294 -74.3711 203° Southwest 450 518 25,800 763 Climbing New York Center
Fri 10:34:09 AM 41.1925 -74.4272 197° South 462 532 26,600 756 Climbing New York Center
Fri 10:35:10 AM 41.0764 -74.4786 198° South 462 532 27,300 645 Climbing New York Center
Fri 10:36:10 AM 41.0033 -74.6094 234° Southwest 428 493 27,900 347 Climbing New York Center
Fri 10:37:11 AM 40.9342 -74.7483 237° Southwest 439 505 28,000 50 Climbing New York Center
Fri 10:38:09 AM 40.8628 -74.8867 236° Southwest 452 520 28,000  Level New York Center
Fri 10:39:10 AM 40.7911 -75.0250 236° Southwest 463 533 28,000 -246 Level New York Center
Fri 10:40:11 AM 40.7192 -75.1683 237° Southwest 469 540 27,500 -793 Descending New York Center
Fri 10:41:11 AM 40.6431 -75.3139 235° Southwest 482 555 26,400 -1,169 Descending New York Center
Fri 10:42:09 AM 40.5686 -75.4539 235° Southwest 482 555 25,200 -1,261 Descending New York Center
Fri 10:43:10 AM 40.4942 -75.5961 235° Southwest 482 555 23,900 -1,736 Descending New York Center
Fri 10:44:10 AM 40.4217 -75.7383 236° Southwest 477 549 21,700 -1,934 Descending New York Center
Fri 10:45:11 AM 40.3447 -75.8769 234° Southwest 477 549 20,000 -836 Descending New York Center
Fri 10:46:12 AM 40.2681 -76.0128 234° Southwest 477 549 20,000 -661 Level New York Center
Fri 10:47:09 AM 40.2083 -76.1333 237° Southwest 470 541 18,700 -1,077 Descending New York Center
Fri 10:48:09 AM 40.1264 -76.2844 235° Southwest 470 541 17,900 -843 Descending New York Center
Fri 10:49:10 AM 40.0683 -76.4075 238° Southwest 458 527 17,000 -992 Descending New York Center
Fri 10:50:10 AM 40.0008 -76.5539 239° Southwest 444 511 15,900 -638 Descending New York Center
Fri 10:52:18 AM 39.8667 -76.8333 238° Southwest 414 476 15,000 -287 Descending Potomac TRACON
Fri 10:53:18 AM 39.8167 -76.9500 241° Southwest 405 466 15,000 -522 Level Potomac TRACON
Fri 10:54:13 AM 39.7500 -77.0667 233° Southwest 409 471 14,000 -1,785 Descending Potomac TRACON
Fri 10:55:19 AM 39.6833 -77.2167 240° Southwest 410 472 11,400 -2,000 Descending Potomac TRACON
Fri 10:56:13 AM 39.6333 -77.3167 237° Southwest 373 429 10,000 -1,053 Descending Potomac TRACON
Fri 10:57:13 AM 39.5833 -77.4000 232° Southwest 300 345 9,400 -737 Descending Potomac TRACON
Fri 10:58:07 AM 39.5333 -77.4500 218° Southwest 292 336 8,600 -947 Descending Potomac TRACON
Fri 10:59:07 AM 39.4500 -77.4500 180° South 285 328 7,600 -793 Descending Potomac TRACON
Fri 11:00:08 AM 39.3667 -77.4500 180° South 272 313 7,000 -313 Descending Potomac TRACON
Fri 11:01:02 AM 39.3000 -77.4500 180° South 276 318 7,000 -900 Level Potomac TRACON
Fri 11:02:08 AM 39.2167 -77.4500 180° South 265 305 5,200 -1,438 Descending Potomac TRACON
Fri 11:03:03 AM 39.1667 -77.4500 180° South 229 264 4,100 -1,252 Descending Potomac TRACON
Fri 11:04:03 AM 39.1000 -77.4500 180° South 224 258 2,800 -1,200 Descending Potomac TRACON
Fri 11:05:03 AM 39.0333 -77.4667 191° South 199 229 1,700 -1,000 Descending Potomac TRACON
Fri 11:06:03 AM 39.0000 -77.4667 180° South 144 166 800 -900 Descending Potomac TRACON
Fri 11:08:00 AM 38.9474 -77.4599 180° South  Level Estimated
Fri 11:15:00 AM 38.9474 -77.4599 349° North  Level Estimated
Fri 11:16:00 AM 38.9474 -77.4599 349° North  Level Estimated

Login

Don't have an account? Register now (free) for customized features, flight alerts, and more!